Terminal Aerodrome Forecast
Issued by NWS Corpus Christi, TX

Home | Current Version | Previous Version | Text Only | Print | Product List | Glossary On
Versions: 1 2 3 4 5 6 7 8 9 10 11 12 13 14 15 16 17 18 19 20 21
000
FTUS44 KCRP 240500
TAFVCT
TAF
KVCT 240535Z 2406/2506 17007KT P6SM BKN015
      TEMPO 2406/2409 SCT015 BKN250
     FM240900 15005KT 6SM BR OVC008 WS020/19033KT
     FM241430 17014G18KT P6SM BKN015
     FM241700 17013KT P6SM SCT035 BKN120
     FM242200 15010KT P6SM BKN040
     FM250400 VRB03KT 5SM BR FEW008 BKN040=

USA.gov is the U.S. government's official web portal to all federal, state and local government web resources and services.